createdAt,value
2023-04-16T00:04:58.271Z,7.72
2023-04-16T00:09:59.850Z,7.69
2023-04-16T00:15:01.284Z,7.67
2023-04-16T00:20:02.932Z,7.66
2023-04-16T00:25:05.095Z,7.72
2023-04-16T00:30:07.560Z,7.67
2023-04-16T00:35:09.148Z,7.69
2023-04-16T00:40:11.173Z,7.64
2023-04-16T00:45:12.630Z,7.68
2023-04-16T00:50:14.357Z,7.67
2023-04-16T00:55:18.648Z,7.63
2023-04-16T01:00:21.298Z,7.68
2023-04-16T01:05:22.881Z,7.66
2023-04-16T01:10:24.340Z,7.70
2023-04-16T01:15:25.769Z,7.67
2023-04-16T01:20:27.133Z,7.69
2023-04-16T01:25:28.543Z,7.75
2023-04-16T01:30:29.962Z,7.74
2023-04-16T01:35:31.397Z,7.73
2023-04-16T01:40:32.782Z,7.74
2023-04-16T01:45:35.101Z,7.77
2023-04-16T01:50:37.630Z,7.77
2023-04-16T01:55:39.076Z,7.76
2023-04-16T02:00:40.532Z,7.80
2023-04-16T02:05:42.001Z,7.80
2023-04-16T02:10:46.424Z,7.78
2023-04-16T02:15:49.064Z,7.82
2023-04-16T02:20:50.612Z,7.83
2023-04-16T02:25:52.048Z,7.84
2023-04-16T02:30:53.475Z,7.81
2023-04-16T02:35:54.880Z,7.82
2023-04-16T02:40:56.347Z,7.82
2023-04-16T02:45:59.307Z,7.83
2023-04-16T02:51:01.033Z,7.86
2023-04-16T02:56:02.501Z,7.84
2023-04-16T03:01:04.139Z,7.82
2023-04-16T03:06:05.684Z,7.83
2023-04-16T03:11:07.572Z,7.85
2023-04-16T03:16:09.036Z,7.87
2023-04-16T03:21:10.556Z,7.88
2023-04-16T03:26:11.960Z,7.87
2023-04-16T03:31:13.517Z,7.85
2023-04-16T03:36:14.918Z,7.80
2023-04-16T03:41:16.458Z,7.83
2023-04-16T03:46:17.894Z,7.84
2023-04-16T03:51:19.493Z,7.81
2023-04-16T03:56:21.087Z,7.76
2023-04-16T04:01:22.475Z,7.81
2023-04-16T04:06:23.886Z,7.76
2023-04-16T04:11:25.292Z,7.78
2023-04-16T04:16:26.737Z,7.75
2023-04-16T04:21:29.132Z,7.79
2023-04-16T04:26:30.632Z,7.78
2023-04-16T04:31:32.258Z,7.74
2023-04-16T04:36:33.698Z,7.73
2023-04-16T04:41:36.048Z,7.74
2023-04-16T04:46:37.497Z,7.74
2023-04-16T04:51:38.904Z,7.72
2023-04-16T04:56:40.355Z,7.75
2023-04-16T05:01:42.163Z,7.77
2023-04-16T05:06:44.148Z,7.75
2023-04-16T05:11:45.498Z,7.77
2023-04-16T05:16:47.475Z,7.78
2023-04-16T05:21:49.105Z,7.80
2023-04-16T05:26:50.684Z,7.79
2023-04-16T05:31:53.025Z,7.79
2023-04-16T05:36:54.642Z,7.79
2023-04-16T05:41:56.150Z,7.80
2023-04-16T05:46:57.582Z,7.85
2023-04-16T05:51:59.256Z,7.88
2023-04-16T05:57:01.803Z,7.88
2023-04-16T06:02:03.317Z,7.88
2023-04-16T06:07:04.768Z,7.96
2023-04-16T06:12:06.476Z,7.98
2023-04-16T06:17:07.908Z,7.99
2023-04-16T06:22:09.882Z,8.05
2023-04-16T06:27:11.414Z,8.04
2023-04-16T06:32:12.909Z,8.12
2023-04-16T06:37:14.957Z,8.17
2023-04-16T06:42:16.449Z,8.25
2023-04-16T06:47:17.945Z,8.29
2023-04-16T06:52:19.403Z,8.28
2023-04-16T06:57:20.901Z,8.37
2023-04-16T07:02:22.460Z,8.39
2023-04-16T07:07:24.047Z,8.42
2023-04-16T07:12:25.686Z,8.47
2023-04-16T07:17:27.185Z,8.46
2023-04-16T07:22:28.617Z,8.49
2023-04-16T07:27:30.089Z,8.56
2023-04-16T07:32:31.563Z,8.57
2023-04-16T07:37:33.003Z,8.66
2023-04-16T07:42:34.869Z,8.73
2023-04-16T07:47:36.767Z,8.71
2023-04-16T07:52:41.310Z,8.65
2023-04-16T07:57:42.888Z,8.66
2023-04-16T08:02:44.592Z,8.72
2023-04-16T08:07:46.479Z,8.84
2023-04-16T08:12:48.083Z,8.89
2023-04-16T08:17:49.530Z,8.75
2023-04-16T08:22:51.124Z,8.85
2023-04-16T08:27:52.596Z,8.89
2023-04-16T08:32:54.376Z,8.93
2023-04-16T08:37:57.822Z,9.05
2023-04-16T08:43:02.747Z,8.94
2023-04-16T08:48:06.159Z,9.08
2023-04-16T08:53:11.341Z,9.16
2023-04-16T08:58:15.439Z,9.15
2023-04-16T09:03:17.033Z,9.23
2023-04-16T09:08:18.641Z,9.29
2023-04-16T09:13:22.231Z,9.32
2023-04-16T09:18:24.544Z,9.37
2023-04-16T09:23:25.937Z,9.63
2023-04-16T09:28:45.562Z,9.50
2023-04-16T09:34:05.501Z,9.81
2023-04-16T09:39:07.064Z,9.96
2023-04-16T09:44:08.562Z,10.10
2023-04-16T09:49:13.452Z,10.12
2023-04-16T09:54:15.884Z,10.19
2023-04-16T09:59:18.291Z,10.33
2023-04-16T10:04:20.428Z,10.47
2023-04-16T10:09:23.004Z,10.40
2023-04-16T10:14:24.499Z,10.62
2023-04-16T10:19:27.139Z,10.69
2023-04-16T10:24:30.034Z,10.73
2023-04-16T10:29:32.865Z,10.67
2023-04-16T10:34:35.199Z,11.01
2023-04-16T10:39:39.589Z,11.07
2023-04-16T10:44:44.412Z,11.11
2023-04-16T10:49:48.315Z,11.25
2023-04-16T10:54:52.531Z,11.39
2023-04-16T10:59:55.075Z,11.41
2023-04-16T11:04:57.526Z,11.49
2023-04-16T11:10:13.438Z,11.20
2023-04-16T11:15:16.656Z,11.46
2023-04-16T11:20:24.234Z,11.58
2023-04-16T11:25:34.352Z,11.96
2023-04-16T11:30:40.590Z,11.68
2023-04-16T11:35:44.394Z,11.84
2023-04-16T11:40:57.108Z,12.51
2023-04-16T11:46:02.559Z,11.75
2023-04-16T11:51:05.378Z,12.09
2023-04-16T11:56:07.219Z,11.98
2023-04-16T12:01:10.193Z,11.76
2023-04-16T12:06:13.276Z,11.69
2023-04-16T12:11:16.680Z,11.62
2023-04-16T12:16:21.227Z,11.48
2023-04-16T12:21:22.857Z,11.52
2023-04-16T12:26:25.609Z,11.65
2023-04-16T12:31:40.295Z,11.38
2023-04-16T12:36:42.611Z,11.33
2023-04-16T12:41:44.633Z,11.65
2023-04-16T12:46:47.433Z,11.42
2023-04-16T12:51:49.228Z,11.47
2023-04-16T12:56:54.156Z,11.37
2023-04-16T13:01:55.806Z,12.11
2023-04-16T13:06:57.666Z,11.51
2023-04-16T13:11:59.261Z,11.83
2023-04-16T13:17:01.572Z,11.98
2023-04-16T13:22:03.294Z,11.77
2023-04-16T13:27:06.795Z,11.47
2023-04-16T13:32:13.698Z,11.91
2023-04-16T13:37:15.272Z,12.88
2023-04-16T13:42:16.895Z,12.61
2023-04-16T13:47:26.857Z,12.80
2023-04-16T13:52:45.296Z,13.00
2023-04-16T13:57:49.195Z,12.34
2023-04-16T14:02:55.019Z,12.45
2023-04-16T14:07:56.710Z,12.32
2023-04-16T14:12:58.483Z,12.15
2023-04-16T14:18:01.226Z,12.07
2023-04-16T14:23:03.573Z,11.91
2023-04-16T14:28:05.057Z,11.81
2023-04-16T14:33:11.036Z,11.65
2023-04-16T14:38:12.888Z,11.65
2023-04-16T14:43:15.065Z,11.87
2023-04-16T14:48:16.678Z,11.41
2023-04-16T14:53:18.941Z,11.51
2023-04-16T14:58:22.317Z,12.23
2023-04-16T15:03:25.774Z,12.05
2023-04-16T15:08:27.408Z,12.12
2023-04-16T15:13:33.939Z,11.83
2023-04-16T15:18:36.032Z,11.67
2023-04-16T15:23:42.648Z,11.71
2023-04-16T15:28:46.851Z,11.35
2023-04-16T15:33:49.335Z,11.59
2023-04-16T15:38:51.239Z,11.63
2023-04-16T15:43:54.824Z,11.47
2023-04-16T15:48:59.068Z,11.49
2023-04-16T15:54:00.916Z,11.60
2023-04-16T15:59:08.841Z,11.49
2023-04-16T16:04:14.380Z,11.56
2023-04-16T16:09:17.616Z,11.51
2023-04-16T16:14:24.436Z,11.51
2023-04-16T16:19:31.179Z,11.61
2023-04-16T16:24:32.859Z,11.52
2023-04-16T16:29:38.614Z,11.49
2023-04-16T16:34:40.230Z,11.39
2023-04-16T16:39:41.782Z,11.55
2023-04-16T16:44:43.223Z,11.35
2023-04-16T16:49:44.995Z,11.35
2023-04-16T16:54:46.766Z,11.32
2023-04-16T16:59:48.570Z,11.13
2023-04-16T17:04:50.295Z,11.00
2023-04-16T17:09:51.766Z,10.82
2023-04-16T17:14:53.255Z,10.82
2023-04-16T17:19:54.817Z,10.84
2023-04-16T17:24:56.257Z,10.72
2023-04-16T17:30:01.155Z,10.73
2023-04-16T17:35:04.173Z,10.57
2023-04-16T17:40:07.719Z,10.48
2023-04-16T17:45:09.439Z,10.36
2023-04-16T17:50:11.895Z,10.31
2023-04-16T17:55:13.413Z,10.06
2023-04-16T18:00:16.137Z,9.97
2023-04-16T18:05:18.939Z,9.87
2023-04-16T18:10:20.437Z,9.94
2023-04-16T18:15:21.861Z,9.78
2023-04-16T18:20:23.322Z,9.73
2023-04-16T18:25:33.680Z,9.64
2023-04-16T18:30:39.918Z,9.60
2023-04-16T18:35:42.094Z,9.34
2023-04-16T18:40:46.797Z,9.28
2023-04-16T18:45:48.361Z,9.36
2023-04-16T18:50:49.901Z,9.20
2023-04-16T18:55:54.804Z,9.17
2023-04-16T19:00:59.873Z,9.02
2023-04-16T19:06:04.166Z,9.12
2023-04-16T19:11:07.124Z,9.03
2023-04-16T19:16:11.689Z,9.09
2023-04-16T19:21:13.578Z,9.20
2023-04-16T19:26:15.822Z,8.96
2023-04-16T19:31:17.377Z,8.77
2023-04-16T19:36:21.202Z,8.75
2023-04-16T19:41:22.716Z,8.76
2023-04-16T19:46:27.262Z,8.62
2023-04-16T19:51:28.759Z,8.53
2023-04-16T19:56:33.427Z,8.50
2023-04-16T20:01:35.334Z,8.44
2023-04-16T20:06:41.337Z,8.50
2023-04-16T20:11:43.369Z,8.52
2023-04-16T20:16:45.276Z,8.46
2023-04-16T20:21:48.001Z,8.38
2023-04-16T20:26:53.453Z,8.41
2023-04-16T20:31:55.048Z,8.41
2023-04-16T20:37:00.986Z,8.37
2023-04-16T20:42:04.287Z,8.45
2023-04-16T20:47:09.664Z,8.35
2023-04-16T20:52:17.343Z,8.32
2023-04-16T20:57:19.010Z,8.40
2023-04-16T21:02:22.448Z,8.34
2023-04-16T21:07:24.412Z,8.38
2023-04-16T21:12:26.542Z,8.22
2023-04-16T21:17:31.808Z,8.25
2023-04-16T21:22:33.397Z,8.25
2023-04-16T21:27:34.876Z,8.24
2023-04-16T21:32:41.251Z,8.31
2023-04-16T21:37:45.074Z,8.22
2023-04-16T21:42:48.044Z,8.22
2023-04-16T21:47:52.982Z,8.28
2023-04-16T21:52:54.798Z,8.29
2023-04-16T21:57:58.537Z,8.15
2023-04-16T22:03:00.221Z,8.20
2023-04-16T22:08:08.193Z,8.23
2023-04-16T22:13:23.028Z,8.19
2023-04-16T22:18:25.745Z,8.17
2023-04-16T22:23:27.313Z,8.12
2023-04-16T22:28:28.779Z,8.11
2023-04-16T22:33:33.528Z,8.14
2023-04-16T22:38:36.007Z,8.11
2023-04-16T22:43:41.905Z,8.08
2023-04-16T22:48:44.591Z,8.08
2023-04-16T22:53:46.034Z,8.15
2023-04-16T22:58:49.412Z,8.02
2023-04-16T23:03:59.958Z,8.11
2023-04-16T23:09:05.204Z,8.02
2023-04-16T23:14:07.593Z,8.06
2023-04-16T23:19:14.717Z,8.00
2023-04-16T23:24:17.094Z,7.93
2023-04-16T23:29:18.783Z,7.89
2023-04-16T23:34:20.310Z,7.86
2023-04-16T23:39:21.756Z,7.75
2023-04-16T23:44:23.369Z,7.65
2023-04-16T23:49:24.948Z,7.71
2023-04-16T23:54:26.324Z,7.72
2023-04-16T23:59:27.732Z,7.65
